Time,TemperatureF,DewpointF,PressureIn,WindDirection,WindDirectionDegrees,WindSpeedMPH,WindSpeedGustMPH,Humidity,HourlyPrecipIn,Conditions,Clouds,dailyrainin,SoftwareType,DateUTC
2013-01-03 00:01:00,48.5,32.5,30.34,West,270,0.0,0.8,54,0.00,,,0.00,WUHU216HW,2013-01-02 23:01:00,
2013-01-03 00:06:00,48.5,33.0,30.35,North,0,0.0,1.1,55,0.00,,,0.00,WUHU216HW,2013-01-02 23:06:00,
2013-01-03 00:11:00,48.7,32.5,30.35,South,180,0.0,1.1,54,0.00,,,0.00,WUHU216HW,2013-01-02 23:11:00,
2013-01-03 00:16:00,48.7,32.7,30.35,South,180,0.6,0.8,54,0.00,,,0.00,WUHU216HW,2013-01-02 23:16:00,
2013-01-03 00:21:00,48.7,32.7,30.34,South,180,0.8,0.8,54,0.00,,,0.00,WUHU216HW,2013-01-02 23:21:00,
2013-01-03 00:26:00,48.7,32.3,30.35,SSE,158,0.0,0.8,53,0.00,,,0.00,WUHU216HW,2013-01-02 23:26:00,
2013-01-03 00:31:00,48.7,32.7,30.35,SSE,158,0.0,0.6,54,0.00,,,0.00,WUHU216HW,2013-01-02 23:31:00,
2013-01-03 00:36:00,48.7,32.7,30.35,SE,135,0.0,0.0,54,0.00,,,0.00,WUHU216HW,2013-01-02 23:36:00,
2013-01-03 00:41:00,48.7,32.7,30.35,SSE,158,0.8,0.8,54,0.00,,,0.00,WUHU216HW,2013-01-02 23:41:00,
2013-01-03 00:46:00,48.7,33.2,30.35,ENE,68,0.0,0.8,55,0.00,,,0.00,WUHU216HW,2013-01-02 23:46:00,
2013-01-03 00:51:00,48.7,34.6,30.35,East,90,1.7,1.7,58,0.00,,,0.00,WUHU216HW,2013-01-02 23:51:00,
2013-01-03 00:56:00,48.7,35.5,30.35,NE,55,1.4,1.7,60,0.00,,,0.00,WUHU216HW,2013-01-02 23:56:00,
2013-01-03 01:01:00,48.7,35.0,30.35,NE,45,0.0,1.5,59,0.00,,,0.00,WUHU216HW,2013-01-03 00:01:00,
2013-01-03 01:08:00,48.5,34.9,30.35,SSE,158,0.8,0.8,59,0.00,,,0.00,WUHU216HW,2013-01-03 00:08:00,
2013-01-03 01:13:00,48.9,36.0,30.36,SE,144,1.3,1.5,61,0.00,,,0.00,WUHU216HW,2013-01-03 00:13:00,
2013-01-03 01:18:00,49.6,38.3,30.36,ESE,113,1.1,1.5,65,0.00,,,0.00,WUHU216HW,2013-01-03 00:18:00,
2013-01-03 01:23:00,49.6,38.3,30.36,SSE,158,0.0,1.1,65,0.00,,,0.00,WUHU216HW,2013-01-03 00:23:00,
2013-01-03 01:28:00,49.2,37.5,30.36,SE,135,0.0,0.0,64,0.00,,,0.00,WUHU216HW,2013-01-03 00:28:00,
2013-01-03 01:33:00,49.1,37.0,30.36,NE,38,0.9,1.1,63,0.00,,,0.00,WUHU216HW,2013-01-03 00:33:00,
2013-01-03 01:39:00,48.9,37.2,30.36,NE,45,0.0,1.1,64,0.00,,,0.00,WUHU216HW,2013-01-03 00:39:00,
2013-01-03 01:44:00,48.9,37.2,30.37,SE,135,0.0,1.1,64,0.00,,,0.00,WUHU216HW,2013-01-03 00:44:00,
2013-01-03 01:48:00,48.7,36.6,30.37,WSW,248,2.3,2.4,63,0.00,,,0.00,WUHU216HW,2013-01-03 00:48:00,
2013-01-03 01:53:00,48.3,35.6,30.38,West,270,1.5,2.4,61,0.00,,,0.00,WUHU216HW,2013-01-03 00:53:00,
2013-01-03 01:58:00,48.2,34.5,30.38,North,0,0.0,2.0,59,0.00,,,0.00,WUHU216HW,2013-01-03 00:58:00,
2013-01-03 02:03:00,48.0,33.9,30.38,South,180,0.6,0.6,58,0.00,,,0.00,WUHU216HW,2013-01-03 01:03:00,
2013-01-03 02:09:00,48.0,33.4,30.38,SSE,158,0.0,0.6,57,0.00,,,0.00,WUHU216HW,2013-01-03 01:09:00,
2013-01-03 02:14:00,48.0,33.4,30.38,ESE,113,1.4,1.5,57,0.00,,,0.00,WUHU216HW,2013-01-03 01:14:00,
2013-01-03 02:18:00,48.3,34.7,30.38,South,180,0.0,2.0,59,0.00,,,0.00,WUHU216HW,2013-01-03 01:18:00,
2013-01-03 02:23:00,48.7,35.9,30.38,South,180,0.8,2.0,61,0.00,,,0.00,WUHU216HW,2013-01-03 01:23:00,
2013-01-03 02:29:00,48.9,36.3,30.39,NE,45,0.8,1.7,62,0.00,,,0.00,WUHU216HW,2013-01-03 01:29:00,
2013-01-03 02:33:00,48.7,36.6,30.39,NNE,23,0.0,0.8,63,0.00,,,0.00,WUHU216HW,2013-01-03 01:33:00,
2013-01-03 02:38:00,48.3,35.6,30.39,NE,45,0.0,1.3,61,0.00,,,0.00,WUHU216HW,2013-01-03 01:38:00,
2013-01-03 02:43:00,48.0,35.2,30.39,ESE,113,1.5,1.5,61,0.00,,,0.00,WUHU216HW,2013-01-03 01:43:00,
2013-01-03 02:49:00,48.2,36.1,30.39,SE,135,0.0,1.5,63,0.00,,,0.00,WUHU216HW,2013-01-03 01:49:00,
2013-01-03 02:53:00,48.5,37.2,30.39,ESE,113,0.6,1.5,65,0.00,,,0.00,WUHU216HW,2013-01-03 01:53:00,
2013-01-03 02:59:00,48.5,37.6,30.40,East,80,1.5,2.4,66,0.00,,,0.00,WUHU216HW,2013-01-03 01:59:00,
2013-01-03 03:04:00,48.7,38.2,30.40,North,0,0.0,2.4,67,0.00,,,0.00,WUHU216HW,2013-01-03 02:04:00,
2013-01-03 03:09:00,48.5,38.4,30.39,ESE,113,0.0,1.7,68,0.00,,,0.00,WUHU216HW,2013-01-03 02:09:00,
2013-01-03 03:14:00,48.5,39.2,30.40,ESE,113,0.0,1.7,70,0.00,,,0.00,WUHU216HW,2013-01-03 02:14:00,
2013-01-03 03:19:00,48.7,39.3,30.40,South,180,0.0,1.3,70,0.00,,,0.00,WUHU216HW,2013-01-03 02:19:00,
2013-01-03 03:24:00,48.7,39.3,30.40,SSW,203,0.0,1.1,70,0.00,,,0.00,WUHU216HW,2013-01-03 02:24:00,
2013-01-03 03:29:00,48.2,38.8,30.40,ESE,113,2.0,2.0,70,0.00,,,0.00,WUHU216HW,2013-01-03 02:29:00,
2013-01-03 03:34:00,48.3,39.3,30.40,SE,135,0.0,2.4,71,0.00,,,0.00,WUHU216HW,2013-01-03 02:34:00,
2013-01-03 03:39:00,48.3,39.3,30.40,ENE,68,0.0,2.4,71,0.00,,,0.00,WUHU216HW,2013-01-03 02:39:00,
2013-01-03 03:44:00,48.0,39.0,30.40,ESE,113,0.0,1.3,71,0.00,,,0.00,WUHU216HW,2013-01-03 02:44:00,
2013-01-03 03:49:00,47.8,39.2,30.40,NNE,23,1.1,1.7,72,0.00,,,0.00,WUHU216HW,2013-01-03 02:49:00,
2013-01-03 03:54:00,47.4,38.8,30.40,ENE,68,0.0,3.1,72,0.00,,,0.00,WUHU216HW,2013-01-03 02:54:00,
2013-01-03 03:59:00,47.1,38.2,30.40,NE,45,0.0,3.1,71,0.00,,,0.00,WUHU216HW,2013-01-03 02:59:00,
2013-01-03 04:04:00,46.5,37.3,30.40,North,0,0.0,2.6,70,0.00,,,0.00,WUHU216HW,2013-01-03 03:04:00,
2013-01-03 04:09:00,46.2,36.6,30.40,ENE,76,1.6,2.6,69,0.00,,,0.00,WUHU216HW,2013-01-03 03:09:00,
2013-01-03 04:14:00,46.0,36.0,30.40,ENE,68,1.5,2.0,68,0.00,,,0.00,WUHU216HW,2013-01-03 03:14:00,
2013-01-03 04:19:00,45.6,35.3,30.40,East,90,0.0,1.5,67,0.00,,,0.00,WUHU216HW,2013-01-03 03:19:00,
2013-01-03 04:24:00,46.0,36.4,30.40,NE,45,1.1,2.2,69,0.00,,,0.00,WUHU216HW,2013-01-03 03:24:00,
2013-01-03 04:29:00,46.2,36.6,30.40,NNE,23,1.6,2.2,69,0.00,,,0.00,WUHU216HW,2013-01-03 03:29:00,
2013-01-03 04:34:00,45.6,36.1,30.40,NE,45,0.8,2.2,69,0.00,,,0.00,WUHU216HW,2013-01-03 03:34:00,
2013-01-03 04:39:00,45.5,35.7,30.40,SSW,203,0.0,1.5,68,0.00,,,0.00,WUHU216HW,2013-01-03 03:39:00,
2013-01-03 04:45:00,45.5,34.7,30.40,SSW,203,0.8,2.0,66,0.00,,,0.00,WUHU216HW,2013-01-03 03:45:00,
2013-01-03 04:50:00,45.3,34.2,30.40,SSW,203,0.0,2.0,65,0.00,,,0.00,WUHU216HW,2013-01-03 03:50:00,
2013-01-03 04:55:00,45.1,33.6,30.40,SSW,203,0.0,1.5,64,0.00,,,0.00,WUHU216HW,2013-01-03 03:55:00,
2013-01-03 05:00:00,45.1,33.2,30.40,SSW,203,0.0,1.5,63,0.00,,,0.00,WUHU216HW,2013-01-03 04:00:00,
2013-01-03 05:05:00,45.1,33.2,30.40,ENE,68,0.0,0.0,63,0.00,,,0.00,WUHU216HW,2013-01-03 04:05:00,
2013-01-03 05:10:00,44.9,33.0,30.40,NE,45,0.6,0.6,63,0.00,,,0.00,WUHU216HW,2013-01-03 04:10:00,
2013-01-03 05:15:00,44.7,32.9,30.40,ENE,68,0.0,0.6,63,0.00,,,0.00,WUHU216HW,2013-01-03 04:15:00,
2013-01-03 05:20:00,44.4,32.5,30.40,SW,225,0.0,0.0,63,0.00,,,0.00,WUHU216HW,2013-01-03 04:20:00,
2013-01-03 05:25:00,44.4,31.4,30.41,SW,225,0.8,0.8,60,0.00,,,0.00,WUHU216HW,2013-01-03 04:25:00,
2013-01-03 05:30:00,44.4,31.4,30.40,ENE,68,1.3,1.3,60,0.00,,,0.00,WUHU216HW,2013-01-03 04:30:00,
2013-01-03 05:35:00,44.4,30.1,30.41,ENE,68,0.0,1.3,57,0.00,,,0.00,WUHU216HW,2013-01-03 04:35:00,
2013-01-03 05:40:00,44.4,30.5,30.40,East,90,1.5,1.5,58,0.00,,,0.00,WUHU216HW,2013-01-03 04:40:00,
2013-01-03 05:45:00,44.7,32.1,30.41,ENE,68,1.7,1.7,61,0.00,,,0.00,WUHU216HW,2013-01-03 04:45:00,
2013-01-03 05:50:00,44.7,32.5,30.41,ESE,113,1.7,1.7,62,0.00,,,0.00,WUHU216HW,2013-01-03 04:50:00,
2013-01-03 05:55:00,44.7,32.5,30.41,East,90,0.0,2.0,62,0.00,,,0.00,WUHU216HW,2013-01-03 04:55:00,
2013-01-03 06:00:00,44.9,33.4,30.42,SE,135,1.5,2.4,64,0.00,,,0.00,WUHU216HW,2013-01-03 05:00:00,
2013-01-03 06:01:00,45.1,33.6,30.42,ESE,113,0.0,2.4,64,0.00,,,0.00,WUHU216HW,2013-01-03 05:01:00,
2013-01-03 06:03:00,45.1,34.0,30.41,ESE,113,0.0,2.4,65,0.00,,,0.00,WUHU216HW,2013-01-03 05:03:00,
2013-01-03 06:08:00,44.9,34.2,30.42,East,90,0.0,2.0,66,0.00,,,0.00,WUHU216HW,2013-01-03 05:08:00,
2013-01-03 06:13:00,44.7,33.6,30.42,ENE,68,0.0,1.5,65,0.00,,,0.00,WUHU216HW,2013-01-03 05:13:00,
2013-01-03 06:18:00,44.7,33.6,30.42,ENE,68,0.0,0.0,65,0.00,,,0.00,WUHU216HW,2013-01-03 05:18:00,
2013-01-03 06:23:00,44.6,33.5,30.43,ESE,113,0.0,0.0,65,0.00,,,0.00,WUHU216HW,2013-01-03 05:23:00,
2013-01-03 06:28:00,44.7,34.0,30.43,East,90,0.8,0.8,66,0.00,,,0.00,WUHU216HW,2013-01-03 05:28:00,
2013-01-03 06:33:00,44.9,34.6,30.43,East,90,2.2,2.2,67,0.00,,,0.00,WUHU216HW,2013-01-03 05:33:00,
2013-01-03 06:38:00,44.9,34.6,30.43,ESE,122,1.8,2.4,67,0.00,,,0.00,WUHU216HW,2013-01-03 05:38:00,
2013-01-03 06:43:00,45.3,35.7,30.43,ESE,113,2.0,4.0,69,0.00,,,0.00,WUHU216HW,2013-01-03 05:43:00,
2013-01-03 06:48:00,45.5,36.3,30.43,East,90,2.2,4.0,70,0.00,,,0.00,WUHU216HW,2013-01-03 05:48:00,
2013-01-03 06:53:00,45.3,36.1,30.44,ESE,113,0.0,2.4,70,0.00,,,0.00,WUHU216HW,2013-01-03 05:53:00,
2013-01-03 06:58:00,45.1,35.9,30.44,ESE,113,1.3,1.3,70,0.00,,,0.00,WUHU216HW,2013-01-03 05:58:00,
2013-01-03 07:03:00,45.1,35.5,30.44,East,90,2.2,2.2,69,0.00,,,0.00,WUHU216HW,2013-01-03 06:03:00,
2013-01-03 07:08:00,45.1,35.7,30.45,East,90,2.4,2.4,70,0.00,,,0.00,WUHU216HW,2013-01-03 06:08:00,
2013-01-03 07:13:00,44.7,35.2,30.45,ESE,113,0.8,2.4,69,0.00,,,0.00,WUHU216HW,2013-01-03 06:13:00,
2013-01-03 07:18:00,44.7,35.2,30.45,SE,135,0.0,2.4,69,0.00,,,0.00,WUHU216HW,2013-01-03 06:18:00,
2013-01-03 07:23:00,44.7,34.8,30.45,ESE,113,2.2,2.2,68,0.00,,,0.00,WUHU216HW,2013-01-03 06:23:00,
2013-01-03 07:28:00,44.9,35.0,30.45,ESE,113,0.0,2.6,68,0.00,,,0.00,WUHU216HW,2013-01-03 06:28:00,
2013-01-03 07:33:00,44.6,34.6,30.46,South,180,0.0,2.6,68,0.00,,,0.00,WUHU216HW,2013-01-03 06:33:00,
2013-01-03 07:38:00,44.4,34.1,30.46,South,180,0.0,0.0,67,0.00,,,0.00,WUHU216HW,2013-01-03 06:38:00,
2013-01-03 07:43:00,44.4,34.1,30.46,SE,135,0.0,0.0,67,0.00,,,0.00,WUHU216HW,2013-01-03 06:43:00,
2013-01-03 07:48:00,44.4,33.7,30.46,East,90,1.1,1.1,66,0.00,,,0.00,WUHU216HW,2013-01-03 06:48:00,
2013-01-03 07:53:00,44.2,33.5,30.46,ENE,68,0.0,1.1,66,0.00,,,0.00,WUHU216HW,2013-01-03 06:53:00,
2013-01-03 07:58:00,44.2,33.1,30.46,ESE,113,1.1,1.1,65,0.00,,,0.00,WUHU216HW,2013-01-03 06:58:00,
2013-01-03 08:03:00,44.2,32.7,30.47,East,90,0.0,1.5,64,0.00,,,0.00,WUHU216HW,2013-01-03 07:03:00,
2013-01-03 08:08:00,44.4,33.5,30.47,North,0,0.0,1.5,65,0.00,,,0.00,WUHU216HW,2013-01-03 07:08:00,
2013-01-03 08:13:00,44.7,34.0,30.47,ESE,113,2.2,2.2,66,0.00,,,0.00,WUHU216HW,2013-01-03 07:13:00,
2013-01-03 08:18:00,45.1,34.4,30.47,East,90,2.2,3.1,66,0.00,,,0.00,WUHU216HW,2013-01-03 07:18:00,
2013-01-03 08:23:00,45.6,35.3,30.47,SE,135,2.4,3.1,67,0.00,,,0.00,WUHU216HW,2013-01-03 07:23:00,
2013-01-03 08:28:00,46.2,36.6,30.47,SSE,158,0.0,2.4,69,0.00,,,0.00,WUHU216HW,2013-01-03 07:28:00,
2013-01-03 08:33:00,46.2,36.6,30.48,North,0,0.0,0.0,69,0.00,,,0.00,WUHU216HW,2013-01-03 07:33:00,
2013-01-03 08:38:00,46.2,37.0,30.48,ESE,113,2.2,2.2,70,0.00,,,0.00,WUHU216HW,2013-01-03 07:38:00,
2013-01-03 08:43:00,46.7,37.5,30.48,SE,135,1.5,2.2,70,0.00,,,0.00,WUHU216HW,2013-01-03 07:43:00,
2013-01-03 08:48:00,48.0,39.3,30.48,East,90,1.7,2.4,73,0.00,,,0.00,WUHU216HW,2013-01-03 07:48:00,
2013-01-03 08:53:00,48.0,39.3,30.48,ESE,113,2.0,2.4,72,0.00,,,0.00,WUHU216HW,2013-01-03 07:53:00,
2013-01-03 08:58:00,48.9,40.5,30.49,ESE,113,1.9,2.2,73,0.00,,,0.00,WUHU216HW,2013-01-03 07:58:00,
2013-01-03 09:03:00,48.7,40.4,30.49,SE,125,2.6,2.9,73,0.00,,,0.00,WUHU216HW,2013-01-03 08:03:00,
2013-01-03 09:08:00,49.6,41.3,30.49,East,90,1.1,2.9,73,0.00,,,0.00,WUHU216HW,2013-01-03 08:08:00,
2013-01-03 09:13:00,50.3,42.0,30.50,North,0,0.0,2.0,73,0.00,,,0.00,WUHU216HW,2013-01-03 08:13:00,
2013-01-03 09:18:00,50.7,42.3,30.50,SSW,203,0.0,1.1,73,0.00,,,0.00,WUHU216HW,2013-01-03 08:18:00,
2013-01-03 09:23:00,51.8,43.4,30.50,South,180,1.3,1.3,73,0.00,,,0.00,WUHU216HW,2013-01-03 08:23:00,
2013-01-03 09:28:00,53.2,44.4,30.50,SSE,158,1.5,1.7,72,0.00,,,0.00,WUHU216HW,2013-01-03 08:28:00,
2013-01-03 09:33:00,53.4,44.4,30.50,SW,225,2.2,2.2,71,0.00,,,0.00,WUHU216HW,2013-01-03 08:33:00,
2013-01-03 09:38:00,53.2,44.0,30.51,SSW,203,1.7,2.9,71,0.00,,,0.00,WUHU216HW,2013-01-03 08:38:00,
2013-01-03 09:43:00,53.7,44.2,30.50,SSE,158,1.1,2.9,70,0.00,,,0.00,WUHU216HW,2013-01-03 08:43:00,
2013-01-03 09:48:00,54.6,44.7,30.51,SSW,203,0.0,2.2,69,0.00,,,0.00,WUHU216HW,2013-01-03 08:48:00,
2013-01-03 09:53:00,55.9,45.5,30.51,SE,135,0.0,0.0,68,0.00,,,0.00,WUHU216HW,2013-01-03 08:53:00,
2013-01-03 09:58:00,57.0,45.7,30.51,WSW,248,0.0,0.0,66,0.00,,,0.00,WUHU216HW,2013-01-03 08:58:00,
2013-01-03 10:03:00,55.9,44.7,30.51,South,180,1.5,1.7,66,0.00,,,0.00,WUHU216HW,2013-01-03 09:03:00,
2013-01-03 10:08:00,56.1,44.8,30.52,SSE,158,1.7,2.6,66,0.00,,,0.00,WUHU216HW,2013-01-03 09:08:00,
2013-01-03 10:13:00,56.4,44.8,30.52,SW,225,2.2,2.6,65,0.00,,,0.00,WUHU216HW,2013-01-03 09:13:00,
2013-01-03 10:18:00,55.9,44.1,30.52,SSW,211,2.1,2.9,65,0.00,,,0.00,WUHU216HW,2013-01-03 09:18:00,
2013-01-03 10:23:00,55.5,44.3,30.52,SW,225,2.0,2.9,66,0.00,,,0.00,WUHU216HW,2013-01-03 09:23:00,
2013-01-03 10:28:00,55.9,44.7,30.52,SSW,203,1.7,2.9,66,0.00,,,0.00,WUHU216HW,2013-01-03 09:28:00,
2013-01-03 10:33:00,57.0,45.3,30.52,SSE,158,0.0,1.7,65,0.00,,,0.00,WUHU216HW,2013-01-03 09:33:00,
2013-01-03 10:38:00,58.1,45.9,30.52,SSW,203,1.5,1.5,64,0.00,,,0.00,WUHU216HW,2013-01-03 09:38:00,
2013-01-03 10:43:00,58.6,45.6,30.52,South,180,0.0,1.5,63,0.00,,,0.00,WUHU216HW,2013-01-03 09:43:00,
2013-01-03 10:48:00,59.5,46.0,30.52,WNW,293,1.1,1.1,61,0.00,,,0.00,WUHU216HW,2013-01-03 09:48:00,
2013-01-03 10:53:00,58.2,44.8,30.52,WNW,293,0.0,1.5,61,0.00,,,0.00,WUHU216HW,2013-01-03 09:53:00,
2013-01-03 10:58:00,58.2,45.6,30.52,WNW,293,0.0,1.5,63,0.00,,,0.00,WUHU216HW,2013-01-03 09:58:00,
2013-01-03 11:04:00,59.5,46.5,30.52,SSE,158,0.6,0.6,62,0.00,,,0.00,WUHU216HW,2013-01-03 10:04:00,
2013-01-03 11:09:00,60.6,47.1,30.52,SSW,203,0.0,0.6,61,0.00,,,0.00,WUHU216HW,2013-01-03 10:09:00,
2013-01-03 11:14:00,60.9,47.5,30.51,West,270,0.0,0.0,61,0.00,,,0.00,WUHU216HW,2013-01-03 10:14:00,
2013-01-03 11:19:00,61.1,46.7,30.51,SW,225,1.7,1.7,59,0.00,,,0.00,WUHU216HW,2013-01-03 10:19:00,
2013-01-03 11:24:00,60.8,45.9,30.51,WNW,293,0.0,1.7,58,0.00,,,0.00,WUHU216HW,2013-01-03 10:24:00,
2013-01-03 11:29:00,60.6,46.2,30.50,SW,225,0.0,0.0,59,0.00,,,0.00,WUHU216HW,2013-01-03 10:29:00,
2013-01-03 11:34:00,61.5,46.6,30.50,SSE,158,2.0,2.0,58,0.00,,,0.00,WUHU216HW,2013-01-03 10:34:00,
2013-01-03 11:39:00,61.1,46.2,30.50,SW,225,0.0,2.6,58,0.00,,,0.00,WUHU216HW,2013-01-03 10:39:00,
2013-01-03 11:44:00,61.3,46.4,30.51,South,180,1.5,2.6,58,0.00,,,0.00,WUHU216HW,2013-01-03 10:44:00,
2013-01-03 11:49:00,61.8,45.9,30.50,SSE,158,3.3,3.3,56,0.00,,,0.00,WUHU216HW,2013-01-03 10:49:00,
2013-01-03 11:54:00,61.8,45.4,30.50,SSW,203,0.8,3.3,55,0.00,,,0.00,WUHU216HW,2013-01-03 10:54:00,
2013-01-03 11:59:00,61.5,45.1,30.50,SW,225,2.0,2.6,55,0.00,,,0.00,WUHU216HW,2013-01-03 10:59:00,
2013-01-03 12:04:00,61.8,44.9,30.50,West,270,0.0,2.6,54,0.00,,,0.00,WUHU216HW,2013-01-03 11:04:00,
2013-01-03 12:09:00,62.4,44.9,30.50,South,180,3.5,3.5,53,0.00,,,0.00,WUHU216HW,2013-01-03 11:09:00,
2013-01-03 12:14:00,62.6,44.9,30.50,WSW,248,0.8,3.5,53,0.00,,,0.00,WUHU216HW,2013-01-03 11:14:00,
2013-01-03 12:19:00,62.9,44.5,30.50,NE,45,1.3,2.6,51,0.00,,,0.00,WUHU216HW,2013-01-03 11:19:00,
2013-01-03 12:24:00,62.2,41.6,30.49,NE,45,5.2,7.1,47,0.00,,,0.00,WUHU216HW,2013-01-03 11:24:00,
2013-01-03 12:29:00,61.8,41.9,30.49,SSE,158,2.2,7.1,48,0.00,,,0.00,WUHU216HW,2013-01-03 11:29:00,
2013-01-03 12:34:00,62.0,42.2,30.49,East,90,5.1,5.1,48,0.00,,,0.00,WUHU216HW,2013-01-03 11:34:00,
2013-01-03 12:39:00,62.2,42.8,30.49,East,90,4.2,5.1,49,0.00,,,0.00,WUHU216HW,2013-01-03 11:39:00,
2013-01-03 12:44:00,61.8,41.9,30.49,SE,135,4.6,5.5,48,0.00,,,0.00,WUHU216HW,2013-01-03 11:44:00,
2013-01-03 12:49:00,60.9,41.0,30.48,ENE,68,6.9,7.6,48,0.00,,,0.00,WUHU216HW,2013-01-03 11:49:00,
2013-01-03 12:54:00,60.8,42.5,30.48,ESE,113,6.3,7.6,51,0.00,,,0.00,WUHU216HW,2013-01-03 11:54:00,
2013-01-03 12:59:00,61.3,41.4,30.48,ENE,68,3.2,6.9,48,0.00,,,0.00,WUHU216HW,2013-01-03 11:59:00,
2013-01-03 13:04:00,61.3,41.9,30.48,ENE,68,3.3,7.1,49,0.00,,,0.00,WUHU216HW,2013-01-03 12:04:00,
2013-01-03 13:09:00,61.1,41.2,30.48,NE,45,6.9,7.1,48,0.00,,,0.00,WUHU216HW,2013-01-03 12:09:00,
2013-01-03 13:14:00,61.3,41.4,30.48,East,81,6.4,7.8,48,0.00,,,0.00,WUHU216HW,2013-01-03 12:14:00,
2013-01-03 13:19:00,61.3,40.8,30.48,NE,45,2.9,7.8,47,0.00,,,0.00,WUHU216HW,2013-01-03 12:19:00,
2013-01-03 13:24:00,61.5,41.5,30.47,ENE,68,6.2,6.9,48,0.00,,,0.00,WUHU216HW,2013-01-03 12:24:00,
2013-01-03 13:29:00,62.0,40.9,30.47,NE,54,4.0,6.2,46,0.00,,,0.00,WUHU216HW,2013-01-03 12:29:00,
2013-01-03 13:34:00,61.5,40.4,30.47,ENE,68,7.4,9.3,46,0.00,,,0.00,WUHU216HW,2013-01-03 12:34:00,
2013-01-03 13:39:00,61.3,40.4,30.48,NE,53,4.6,9.3,46,0.00,,,0.00,WUHU216HW,2013-01-03 12:39:00,
2013-01-03 13:44:00,61.7,40.5,30.48,NE,45,2.4,6.4,46,0.00,,,0.00,WUHU216HW,2013-01-03 12:44:00,
2013-01-03 13:49:00,61.8,40.7,30.48,East,84,4.6,5.8,46,0.00,,,0.00,WUHU216HW,2013-01-03 12:49:00,
2013-01-03 13:54:00,62.2,40.4,30.47,ENE,68,9.4,10.2,45,0.00,,,0.00,WUHU216HW,2013-01-03 12:54:00,
2013-01-03 13:59:00,62.2,39.9,30.47,ENE,68,3.5,10.2,44,0.00,,,0.00,WUHU216HW,2013-01-03 12:59:00,
2013-01-03 14:04:00,62.9,41.7,30.47,SE,135,3.5,7.8,46,0.00,,,0.00,WUHU216HW,2013-01-03 13:04:00,
2013-01-03 14:09:00,64.0,42.6,30.48,SW,215,3.2,3.8,46,0.00,,,0.00,WUHU216HW,2013-01-03 13:09:00,
2013-01-03 14:14:00,64.5,43.1,30.48,SSE,158,2.2,3.5,46,0.00,,,0.00,WUHU216HW,2013-01-03 13:14:00,
2013-01-03 14:19:00,65.3,43.2,30.47,WNW,293,0.0,2.2,45,0.00,,,0.00,WUHU216HW,2013-01-03 13:19:00,
2013-01-03 14:24:00,65.8,43.2,30.48,WSW,248,1.1,1.1,44,0.00,,,0.00,WUHU216HW,2013-01-03 13:24:00,
2013-01-03 14:29:00,65.1,43.1,30.48,WSW,248,2.2,2.9,45,0.00,,,0.00,WUHU216HW,2013-01-03 13:29:00,
2013-01-03 14:34:00,64.0,43.8,30.48,South,180,2.2,3.8,48,0.00,,,0.00,WUHU216HW,2013-01-03 13:34:00,
2013-01-03 14:39:00,63.6,44.0,30.48,SE,135,2.0,3.8,49,0.00,,,0.00,WUHU216HW,2013-01-03 13:39:00,
2013-01-03 14:44:00,64.2,44.5,30.48,SSW,203,1.5,2.6,49,0.00,,,0.00,WUHU216HW,2013-01-03 13:44:00,
2013-01-03 14:49:00,64.9,44.6,30.48,WSW,248,0.0,1.5,48,0.00,,,0.00,WUHU216HW,2013-01-03 13:49:00,
2013-01-03 14:54:00,65.3,45.0,30.48,SW,225,0.6,2.2,48,0.00,,,0.00,WUHU216HW,2013-01-03 13:54:00,
2013-01-03 14:59:00,64.5,44.3,30.48,SSE,158,0.0,2.9,48,0.00,,,0.00,WUHU216HW,2013-01-03 13:59:00,
2013-01-03 15:04:00,65.1,44.8,30.48,West,270,0.0,2.9,48,0.00,,,0.00,WUHU216HW,2013-01-03 14:04:00,
2013-01-03 15:09:00,64.9,43.5,30.48,North,0,1.5,1.5,46,0.00,,,0.00,WUHU216HW,2013-01-03 14:09:00,
2013-01-03 15:14:00,62.9,40.5,30.48,NE,45,6.8,7.6,44,0.00,,,0.00,WUHU216HW,2013-01-03 14:14:00,
2013-01-03 15:19:00,61.5,40.4,30.48,ENE,77,5.8,9.1,46,0.00,,,0.00,WUHU216HW,2013-01-03 14:19:00,
2013-01-03 15:24:00,60.9,40.5,30.48,ENE,68,6.4,9.1,47,0.00,,,0.00,WUHU216HW,2013-01-03 14:24:00,
2013-01-03 15:29:00,60.6,41.0,30.48,East,100,4.1,8.9,48,0.00,,,0.00,WUHU216HW,2013-01-03 14:29:00,
2013-01-03 15:34:00,60.6,40.7,30.49,East,90,5.3,7.6,48,0.00,,,0.00,WUHU216HW,2013-01-03 14:34:00,
2013-01-03 15:39:00,60.4,41.1,30.49,ESE,113,6.2,7.6,49,0.00,,,0.00,WUHU216HW,2013-01-03 14:39:00,
2013-01-03 15:44:00,60.4,41.1,30.49,ENE,71,4.2,8.2,49,0.00,,,0.00,WUHU216HW,2013-01-03 14:44:00,
2013-01-03 15:49:00,60.0,40.8,30.49,SE,127,3.0,8.2,49,0.00,,,0.00,WUHU216HW,2013-01-03 14:49:00,
2013-01-03 15:54:00,60.0,41.4,30.49,SE,135,7.1,7.1,50,0.00,,,0.00,WUHU216HW,2013-01-03 14:54:00,
2013-01-03 15:59:00,59.7,41.5,30.49,East,90,6.9,7.1,51,0.00,,,0.00,WUHU216HW,2013-01-03 14:59:00,
2013-01-03 16:04:00,59.3,41.2,30.49,SSE,158,10.0,10.0,51,0.00,,,0.00,WUHU216HW,2013-01-03 15:04:00,
2013-01-03 16:09:00,59.0,41.2,30.49,ESE,113,5.5,10.0,52,0.00,,,0.00,WUHU216HW,2013-01-03 15:09:00,
2013-01-03 16:14:00,58.6,41.0,30.49,SSE,158,2.4,8.9,52,0.00,,,0.00,WUHU216HW,2013-01-03 15:14:00,
2013-01-03 16:19:00,58.6,41.0,30.50,ENE,68,3.5,6.2,52,0.00,,,0.00,WUHU216HW,2013-01-03 15:19:00,
2013-01-03 16:24:00,58.1,41.0,30.50,East,92,5.8,7.1,53,0.00,,,0.00,WUHU216HW,2013-01-03 15:24:00,
2013-01-03 16:29:00,57.9,40.8,30.50,East,90,3.8,12.0,53,0.00,,,0.00,WUHU216HW,2013-01-03 15:29:00,
2013-01-03 16:34:00,57.5,41.0,30.50,ESE,113,4.0,12.0,54,0.00,,,0.00,WUHU216HW,2013-01-03 15:34:00,
2013-01-03 16:39:00,57.3,41.3,30.50,SE,126,3.8,6.2,55,0.00,,,0.00,WUHU216HW,2013-01-03 15:39:00,
2013-01-03 16:44:00,57.0,41.0,30.50,ESE,108,3.2,5.8,55,0.00,,,0.00,WUHU216HW,2013-01-03 15:44:00,
2013-01-03 16:49:00,56.8,41.2,30.50,SE,135,2.9,5.8,56,0.00,,,0.00,WUHU216HW,2013-01-03 15:49:00,
2013-01-03 16:54:00,56.8,41.2,30.51,East,98,6.4,8.2,56,0.00,,,0.00,WUHU216HW,2013-01-03 15:54:00,
2013-01-03 16:59:00,56.8,41.2,30.51,East,99,2.4,8.2,56,0.00,,,0.00,WUHU216HW,2013-01-03 15:59:00,
2013-01-03 17:04:00,56.8,40.8,30.51,NE,45,3.5,6.0,55,0.00,,,0.00,WUHU216HW,2013-01-03 16:04:00,
2013-01-03 17:09:00,56.8,40.8,30.51,ESE,113,5.5,6.0,55,0.00,,,0.00,WUHU216HW,2013-01-03 16:09:00,
2013-01-03 17:14:00,56.8,40.8,30.50,SE,125,5.1,10.0,55,0.00,,,0.00,WUHU216HW,2013-01-03 16:14:00,
2013-01-03 17:19:00,56.8,40.8,30.51,East,90,3.5,10.0,55,0.00,,,0.00,WUHU216HW,2013-01-03 16:19:00,
2013-01-03 17:24:00,56.8,40.8,30.51,NE,45,2.9,8.7,55,0.00,,,0.00,WUHU216HW,2013-01-03 16:24:00,
2013-01-03 17:29:00,56.8,40.8,30.51,SSW,203,4.0,5.1,55,0.00,,,0.00,WUHU216HW,2013-01-03 16:29:00,
2013-01-03 17:34:00,56.4,40.9,30.51,ESE,113,2.2,5.1,56,0.00,,,0.00,WUHU216HW,2013-01-03 16:34:00,
2013-01-03 17:39:00,55.9,41.3,30.51,ESE,113,2.4,2.4,58,0.00,,,0.00,WUHU216HW,2013-01-03 16:39:00,
2013-01-03 17:44:00,55.5,40.9,30.51,ESE,113,0.0,2.4,58,0.00,,,0.00,WUHU216HW,2013-01-03 16:44:00,
2013-01-03 17:49:00,55.0,41.3,30.51,SW,225,1.5,1.5,60,0.00,,,0.00,WUHU216HW,2013-01-03 16:49:00,
2013-01-03 17:54:00,54.5,41.4,30.51,South,180,1.1,1.5,61,0.00,,,0.00,WUHU216HW,2013-01-03 16:54:00,
2013-01-03 17:59:00,53.9,41.3,30.51,South,180,2.4,2.4,62,0.00,,,0.00,WUHU216HW,2013-01-03 16:59:00,
2013-01-03 18:04:00,53.7,41.8,30.52,SSE,158,2.0,3.3,64,0.00,,,0.00,WUHU216HW,2013-01-03 17:04:00,
2013-01-03 18:09:00,53.7,41.8,30.51,South,180,1.7,3.3,64,0.00,,,0.00,WUHU216HW,2013-01-03 17:09:00,
2013-01-03 18:14:00,53.7,41.8,30.52,West,270,0.8,2.2,64,0.00,,,0.00,WUHU216HW,2013-01-03 17:14:00,
2013-01-03 18:19:00,53.4,41.9,30.52,ESE,104,2.5,3.1,65,0.00,,,0.00,WUHU216HW,2013-01-03 17:19:00,
2013-01-03 18:24:00,53.2,42.1,30.52,NNE,23,0.0,3.1,66,0.00,,,0.00,WUHU216HW,2013-01-03 17:24:00,
2013-01-03 18:29:00,52.5,41.8,30.52,East,90,1.5,2.6,67,0.00,,,0.00,WUHU216HW,2013-01-03 17:29:00,
2013-01-03 18:34:00,52.3,42.0,30.52,East,90,0.0,2.6,68,0.00,,,0.00,WUHU216HW,2013-01-03 17:34:00,
2013-01-03 18:39:00,52.3,42.0,30.52,ESE,113,2.4,2.4,68,0.00,,,0.00,WUHU216HW,2013-01-03 17:39:00,
2013-01-03 18:44:00,52.1,42.3,30.52,ESE,113,1.3,2.6,69,0.00,,,0.00,WUHU216HW,2013-01-03 17:44:00,
2013-01-03 18:49:00,52.5,42.2,30.52,SW,225,1.5,2.6,68,0.00,,,0.00,WUHU216HW,2013-01-03 17:49:00,
2013-01-03 18:54:00,52.5,42.2,30.52,SE,135,2.2,2.2,68,0.00,,,0.00,WUHU216HW,2013-01-03 17:54:00,
2013-01-03 18:59:00,52.1,42.3,30.52,South,180,1.7,2.2,69,0.00,,,0.00,WUHU216HW,2013-01-03 17:59:00,
2013-01-03 19:04:00,52.1,42.3,30.52,SW,222,0.7,2.2,69,0.00,,,0.00,WUHU216HW,2013-01-03 18:04:00,
2013-01-03 19:09:00,51.8,42.0,30.52,SE,135,2.2,2.2,69,0.00,,,0.00,WUHU216HW,2013-01-03 18:09:00,
2013-01-03 19:14:00,51.6,42.2,30.52,SSW,203,0.0,2.2,70,0.00,,,0.00,WUHU216HW,2013-01-03 18:14:00,
2013-01-03 19:19:00,51.4,42.0,30.53,ESE,113,1.5,2.0,70,0.00,,,0.00,WUHU216HW,2013-01-03 18:19:00,
2013-01-03 19:24:00,50.7,41.7,30.52,ESE,113,2.9,2.9,71,0.00,,,0.00,WUHU216HW,2013-01-03 18:24:00,
2013-01-03 19:29:00,50.7,41.7,30.53,SE,135,0.0,2.9,71,0.00,,,0.00,WUHU216HW,2013-01-03 18:29:00,
2013-01-03 19:34:00,50.7,41.7,30.53,SE,135,2.0,2.4,71,0.00,,,0.00,WUHU216HW,2013-01-03 18:34:00,
2013-01-03 19:39:00,50.5,41.5,30.52,SE,135,0.0,2.4,71,0.00,,,0.00,WUHU216HW,2013-01-03 18:39:00,
2013-01-03 19:44:00,50.3,41.6,30.53,East,90,2.9,3.3,72,0.00,,,0.00,WUHU216HW,2013-01-03 18:44:00,
2013-01-03 19:49:00,49.8,41.1,30.53,East,98,1.9,3.3,72,0.00,,,0.00,WUHU216HW,2013-01-03 18:49:00,
2013-01-03 19:54:00,49.6,40.9,30.53,East,90,2.2,3.1,72,0.00,,,0.00,WUHU216HW,2013-01-03 18:54:00,
2013-01-03 19:59:00,49.6,40.9,30.53,SE,135,1.7,3.1,72,0.00,,,0.00,WUHU216HW,2013-01-03 18:59:00,
2013-01-03 20:04:00,49.8,41.1,30.53,ESE,113,0.0,2.2,72,0.00,,,0.00,WUHU216HW,2013-01-03 19:04:00,
2013-01-03 20:09:00,49.6,40.9,30.53,ESE,113,0.0,1.5,72,0.00,,,0.00,WUHU216HW,2013-01-03 19:09:00,
2013-01-03 20:14:00,49.6,40.9,30.53,ENE,68,0.8,1.5,72,0.00,,,0.00,WUHU216HW,2013-01-03 19:14:00,
2013-01-03 20:51:00,49.8,41.1,30.54,SSE,158,0.0,2.0,72,0.00,,,0.00,WUHU216HW,2013-01-03 19:51:00,
2013-01-03 20:56:00,49.2,40.6,30.53,SSW,203,0.0,0.0,72,0.00,,,0.00,WUHU216HW,2013-01-03 19:56:00,
2013-01-03 21:01:00,48.7,40.4,30.53,ESE,113,0.0,0.0,73,0.00,,,0.00,WUHU216HW,2013-01-03 20:01:00,
2013-01-03 21:06:00,48.7,40.4,30.54,SSE,158,1.3,1.5,73,0.00,,,0.00,WUHU216HW,2013-01-03 20:06:00,
2013-01-03 21:11:00,48.9,40.2,30.54,SSW,203,0.0,2.4,72,0.00,,,0.00,WUHU216HW,2013-01-03 20:11:00,
2013-01-03 21:16:00,48.5,40.2,30.54,SW,225,0.0,2.4,73,0.00,,,0.00,WUHU216HW,2013-01-03 20:16:00,
2013-01-03 21:21:00,47.8,39.2,30.54,NNE,23,0.6,0.6,72,0.00,,,0.00,WUHU216HW,2013-01-03 20:21:00,
2013-01-03 21:26:00,47.8,39.2,30.54,East,90,2.9,2.9,72,0.00,,,0.00,WUHU216HW,2013-01-03 20:26:00,
2013-01-03 21:31:00,48.0,39.3,30.54,ESE,113,2.4,2.9,72,0.00,,,0.00,WUHU216HW,2013-01-03 20:31:00,
2013-01-03 21:36:00,48.0,39.3,30.54,ESE,102,2.7,3.3,72,0.00,,,0.00,WUHU216HW,2013-01-03 20:36:00,
2013-01-03 21:41:00,48.0,39.3,30.54,SE,135,0.0,3.3,72,0.00,,,0.00,WUHU216HW,2013-01-03 20:41:00,
2013-01-03 21:46:00,48.0,39.3,30.54,ESE,113,1.5,1.7,72,0.00,,,0.00,WUHU216HW,2013-01-03 20:46:00,
2013-01-03 21:51:00,48.0,39.7,30.54,SE,135,0.0,1.5,73,0.00,,,0.00,WUHU216HW,2013-01-03 20:51:00,
2013-01-03 21:56:00,48.3,39.7,30.54,South,180,1.3,1.5,73,0.00,,,0.00,WUHU216HW,2013-01-03 20:56:00,
2013-01-03 22:01:00,48.7,40.4,30.54,SE,135,1.5,1.5,73,0.00,,,0.00,WUHU216HW,2013-01-03 21:01:00,
2013-01-03 22:06:00,48.7,40.4,30.54,SSE,158,2.0,2.2,73,0.00,,,0.00,WUHU216HW,2013-01-03 21:06:00,
2013-01-03 22:11:00,49.2,40.6,30.54,South,180,0.0,2.9,72,0.00,,,0.00,WUHU216HW,2013-01-03 21:11:00,
2013-01-03 22:16:00,49.1,40.4,30.54,SE,135,1.5,2.9,72,0.00,,,0.00,WUHU216HW,2013-01-03 21:16:00,
2013-01-03 22:21:00,48.7,40.4,30.54,SE,135,1.4,1.5,73,0.00,,,0.00,WUHU216HW,2013-01-03 21:21:00,
2013-01-03 22:26:00,48.3,40.0,30.54,East,90,2.4,2.4,73,0.00,,,0.00,WUHU216HW,2013-01-03 21:26:00,
2013-01-03 22:31:00,47.8,39.2,30.54,ESE,113,3.0,3.5,72,0.00,,,0.00,WUHU216HW,2013-01-03 21:31:00,
2013-01-03 22:36:00,47.4,38.8,30.54,East,90,1.7,3.5,72,0.00,,,0.00,WUHU216HW,2013-01-03 21:36:00,
2013-01-03 22:41:00,47.6,39.0,30.54,ENE,68,1.7,2.4,72,0.00,,,0.00,WUHU216HW,2013-01-03 21:41:00,
2013-01-03 22:46:00,47.4,38.8,30.54,East,90,1.3,2.4,72,0.00,,,0.00,WUHU216HW,2013-01-03 21:46:00,
2013-01-03 22:51:00,47.3,38.7,30.54,East,90,2.7,2.9,72,0.00,,,0.00,WUHU216HW,2013-01-03 21:51:00,
2013-01-03 22:56:00,47.1,38.5,30.54,East,90,3.2,3.3,72,0.00,,,0.00,WUHU216HW,2013-01-03 21:56:00,
2013-01-03 23:01:00,46.9,38.3,30.55,ESE,104,1.8,3.3,72,0.00,,,0.00,WUHU216HW,2013-01-03 22:01:00,
2013-01-03 23:06:00,46.9,38.3,30.55,ESE,113,1.7,2.6,72,0.00,,,0.00,WUHU216HW,2013-01-03 22:06:00,
2013-01-03 23:11:00,46.9,38.3,30.54,East,90,2.0,3.1,72,0.00,,,0.00,WUHU216HW,2013-01-03 22:11:00,
2013-01-03 23:16:00,46.9,38.3,30.54,East,80,1.9,3.1,72,0.00,,,0.00,WUHU216HW,2013-01-03 22:16:00,
2013-01-03 23:21:00,46.9,38.3,30.54,ESE,113,0.0,2.0,72,0.00,,,0.00,WUHU216HW,2013-01-03 22:21:00,
2013-01-03 23:26:00,46.7,38.2,30.54,East,90,2.4,2.4,72,0.00,,,0.00,WUHU216HW,2013-01-03 22:26:00,
2013-01-03 23:31:00,46.7,38.2,30.54,ESE,113,2.4,2.9,72,0.00,,,0.00,WUHU216HW,2013-01-03 22:31:00,
2013-01-03 23:36:00,47.1,38.5,30.54,SE,135,2.2,2.9,72,0.00,,,0.00,WUHU216HW,2013-01-03 22:36:00,
2013-01-03 23:41:00,47.1,38.5,30.54,ESE,113,2.1,2.4,72,0.00,,,0.00,WUHU216HW,2013-01-03 22:41:00,
2013-01-03 23:46:00,47.1,38.5,30.54,ESE,102,2.8,2.9,72,0.00,,,0.00,WUHU216HW,2013-01-03 22:46:00,
2013-01-03 23:51:00,46.7,38.2,30.54,ESE,113,2.9,3.1,72,0.00,,,0.00,WUHU216HW,2013-01-03 22:51:00,
2013-01-03 23:56:00,46.7,37.8,30.54,ESE,113,2.8,3.1,71,0.00,,,0.00,WUHU216HW,2013-01-03 22:56:00,